Flight Track Log - Related Links

Times and Time Zones

All times are in EDT time to prevent confusion due to time zone crossing. See the CTL21 flight status page for this flight to view local times or setup timezone preferences in your user account.


Time Position Orientation Groundspeed Altitude Reporting Facility
EDT Latitude Longitude Course Direction KTS MPH feet Rate Location/Type
Wed 05:27:16 PM 42.1539 -85.4128 118° Southeast 131 151 4,300  Level Chicago Center
Wed 05:28:18 PM 42.1358 -85.3694 119° Southeast 132 152 5,100 726 Climbing Chicago Center
Wed 05:29:20 PM 42.1181 -85.3272 120° Southeast 129 148 5,800 629 Climbing Chicago Center
Wed 05:30:00 PM 42.0922 -85.2207 120° Southeast  Level FlightAware Approximate
Wed 05:30:22 PM 42.1014 -85.2817 116° Southeast 133 153 6,400  Level Chicago Center
Wed 05:31:00 PM 42.0701 -85.1647 117° Southeast  Level FlightAware Approximate
Wed 05:31:24 PM 42.0828 -85.2383 120° Southeast 134 154 7,200  Level Chicago Center
Wed 05:32:26 PM 42.0575 -85.1778 119° Southeast 153 176 7,100 -48 Descending Chicago Center
Wed 05:33:28 PM 42.0350 -85.1208 118° Southeast 167 192 7,100  Level Chicago Center
Wed 05:34:30 PM 42.0133 -85.0672 119° Southeast 165 190 7,100  Level Chicago Center
Wed 05:35:33 PM 41.9931 -85.0119 116° Southeast 164 189 7,100  Level Chicago Center
Wed 05:36:35 PM 41.9722 -84.9567 117° Southeast 165 190 7,100  Level Chicago Center
Wed 05:37:37 PM 41.9511 -84.9006 117° Southeast 166 191 7,100  Level Chicago Center
Wed 05:38:39 PM 41.9297 -84.8450 117° Southeast 167 192 7,100  Level Chicago Center
Wed 05:39:41 PM 41.9039 -84.7794 118° Southeast 166 191 7,100  Level Chicago Center
Wed 05:40:43 PM 41.8825 -84.7244 118° Southeast 165 190 7,100  Level Chicago Center
Wed 05:41:45 PM 41.8592 -84.6711 120° Southeast 165 190 7,100  Level Chicago Center
Wed 05:42:47 PM 41.8506 -84.6100 101° East 167 192 7,100  Level Chicago Center
Wed 05:43:49 PM 41.8456 -84.5483 96° East 167 192 7,100  Level Chicago Center
Wed 05:44:51 PM 41.8383 -84.4869 99° East 167 192 7,100  Level Chicago Center
Wed 05:45:53 PM 41.8292 -84.4122 99° East 168 193 7,100  Level Chicago Center
Wed 05:46:56 PM 41.8228 -84.3503 98° East 169 194 7,100  Level Chicago Center
Wed 05:47:58 PM 41.8169 -84.2878 97° East 169 194 7,100  Level Chicago Center
Wed 05:49:00 PM 41.8111 -84.2258 97° East 169 194 7,100  Level Chicago Center
Wed 05:50:02 PM 41.8047 -84.1633 98° East 169 194 7,100  Level Chicago Center
Wed 06:06:59 PM 41.6842 -83.0967 98° East 171 197 7,100  Level Cleveland Center
Wed 06:08:06 PM 41.6753 -83.0267 100° East 172 198 7,100  Level Cleveland Center
Wed 06:09:13 PM 41.6664 -82.9597 100° East 170 196 7,100  Level Cleveland Center
Wed 06:10:14 PM 41.6592 -82.8983 99° East 170 196 7,100  Level Cleveland Center
Wed 06:11:08 PM 41.6522 -82.8397 99° East 171 197 7,100  Level Cleveland Center
Wed 06:12:15 PM 41.6453 -82.7700 98° East 171 197 7,100 -141 Level Cleveland Center
Wed 06:13:16 PM 41.6381 -82.7031 98° East 172 198 6,800 -344 Descending Cleveland Center
Wed 06:14:17 PM 41.6331 -82.6361 96° East 182 209 6,400 -393 Descending Cleveland Center
Wed 06:15:18 PM 41.6217 -82.5664 102° East 185 213 6,000 -469 Descending Cleveland Center
Wed 06:16:25 PM 41.6147 -82.4939 97° East 183 211 5,400 -425 Descending Cleveland Center
Wed 06:17:25 PM 41.6075 -82.4244 98° East 179 206 5,100 -283 Descending Cleveland Center
Wed 06:18:32 PM 41.6000 -82.3603 99° East 165 190 4,800 -344 Descending Cleveland Center
Wed 06:19:27 PM 41.5928 -82.2989 99° East 175 201 4,400 -517 Descending Cleveland Center
Wed 06:20:28 PM 41.5853 -82.2322 99° East 178 205 3,800 -492 Descending Cleveland Center
Wed 06:21:29 PM 41.5758 -82.1708 102° East 174 200 3,400 -414 Descending Cleveland Center
Wed 06:22:24 PM 41.5703 -82.1097 97° East 171 197 3,000 -414 Descending Cleveland Center
Wed 06:23:25 PM 41.5775 -82.0486 81° East 168 193 2,600 -198 Descending Cleveland Center
Wed 06:24:25 PM 41.5803 -81.9878 86° East 161 185 2,600 -198 Level Cleveland Center
Wed 06:25:26 PM 41.5706 -81.9236 101° East 164 189 2,200 -310 Descending Cleveland Center
Wed 06:26:21 PM 41.5567 -81.8789 113° Southeast 166 191 2,000 -259 Descending Cleveland Center
Wed 06:27:22 PM 41.5406 -81.8231 111° Southeast 161 185 1,700 -197 Descending Cleveland Center
Wed 06:28:23 PM 41.5244 -81.7619 109° East 151 174 1,600 -298 Descending Cleveland Center
Wed 06:29:23 PM 41.5125 -81.7200 111° Southeast 116 133 1,100 -500 Descending Cleveland Center

Login

Don't have an account? Register now (free) for customized features, flight alerts, and more!